sensor_id;sensor_type;location;lat;lon;timestamp;pressure;altitude;pressure_sealevel;temperature;humidity
6532;BME280;3299;42.004;24.868;2022-08-19T00:00:24;97797.31;;;26.04;46.83
6532;BME280;3299;42.004;24.868;2022-08-19T00:02:50;97803.38;;;26.11;47.19
6532;BME280;3299;42.004;24.868;2022-08-19T00:05:17;97794.47;;;26.05;47.48
6532;BME280;3299;42.004;24.868;2022-08-19T00:07:43;97796.44;;;26.10;47.50
6532;BME280;3299;42.004;24.868;2022-08-19T00:10:10;97805.16;;;26.17;47.72
6532;BME280;3299;42.004;24.868;2022-08-19T00:12:36;97802.50;;;26.17;47.14
6532;BME280;3299;42.004;24.868;2022-08-19T00:15:04;97805.31;;;26.22;47.44
6532;BME280;3299;42.004;24.868;2022-08-19T00:17:30;97803.03;;;26.25;46.99
6532;BME280;3299;42.004;24.868;2022-08-19T00:19:55;97807.44;;;26.13;47.37
6532;BME280;3299;42.004;24.868;2022-08-19T00:22:21;97797.31;;;26.04;47.74
6532;BME280;3299;42.004;24.868;2022-08-19T00:24:46;97803.50;;;25.98;47.50
6532;BME280;3299;42.004;24.868;2022-08-19T00:27:12;97801.75;;;25.85;48.06
6532;BME280;3299;42.004;24.868;2022-08-19T00:29:38;97803.56;;;25.91;48.16
6532;BME280;3299;42.004;24.868;2022-08-19T00:32:04;97807.63;;;25.94;48.03
6532;BME280;3299;42.004;24.868;2022-08-19T00:34:30;97792.50;;;25.94;48.22
6532;BME280;3299;42.004;24.868;2022-08-19T00:36:56;97797.00;;;25.94;47.99
6532;BME280;3299;42.004;24.868;2022-08-19T00:39:22;97783.97;;;25.86;48.29
6532;BME280;3299;42.004;24.868;2022-08-19T00:41:48;97787.06;;;25.83;47.96
6532;BME280;3299;42.004;24.868;2022-08-19T00:44:21;97779.13;;;25.83;48.04
6532;BME280;3299;42.004;24.868;2022-08-19T00:46:49;97781.16;;;25.81;47.88
6532;BME280;3299;42.004;24.868;2022-08-19T00:51:45;97759.16;;;25.49;48.49
6532;BME280;3299;42.004;24.868;2022-08-19T00:54:12;97766.81;;;25.64;48.57
6532;BME280;3299;42.004;24.868;2022-08-19T00:56:38;97771.53;;;25.62;48.83
6532;BME280;3299;42.004;24.868;2022-08-19T00:59:05;97763.78;;;25.60;48.69
6532;BME280;3299;42.004;24.868;2022-08-19T01:01:39;97759.13;;;25.56;48.18
6532;BME280;3299;42.004;24.868;2022-08-19T01:04:06;97754.03;;;25.54;48.51
6532;BME280;3299;42.004;24.868;2022-08-19T01:06:32;97760.53;;;25.58;48.45
6532;BME280;3299;42.004;24.868;2022-08-19T01:08:59;97753.06;;;25.49;48.34
6532;BME280;3299;42.004;24.868;2022-08-19T01:11:28;97747.56;;;25.50;48.17
6532;BME280;3299;42.004;24.868;2022-08-19T01:13:55;97755.25;;;25.58;47.96
6532;BME280;3299;42.004;24.868;2022-08-19T01:16:22;97754.88;;;25.55;48.24
6532;BME280;3299;42.004;24.868;2022-08-19T01:18:49;97736.97;;;25.50;47.78
6532;BME280;3299;42.004;24.868;2022-08-19T01:21:28;97741.16;;;25.58;47.67
6532;BME280;3299;42.004;24.868;2022-08-19T01:23:56;97732.84;;;25.54;47.66
6532;BME280;3299;42.004;24.868;2022-08-19T01:26:23;97744.66;;;25.58;47.48
6532;BME280;3299;42.004;24.868;2022-08-19T01:28:51;97740.97;;;25.59;47.08
6532;BME280;3299;42.004;24.868;2022-08-19T01:31:20;97739.81;;;25.49;48.00
6532;BME280;3299;42.004;24.868;2022-08-19T01:33:47;97741.44;;;25.50;48.07
6532;BME280;3299;42.004;24.868;2022-08-19T01:36:16;97740.25;;;25.46;47.82
6532;BME280;3299;42.004;24.868;2022-08-19T01:38:47;97743.75;;;25.40;48.29
6532;BME280;3299;42.004;24.868;2022-08-19T01:41:13;97740.53;;;25.31;48.87
6532;BME280;3299;42.004;24.868;2022-08-19T01:43:39;97741.41;;;25.25;49.09
6532;BME280;3299;42.004;24.868;2022-08-19T01:46:05;97754.44;;;25.20;49.15
6532;BME280;3299;42.004;24.868;2022-08-19T01:48:42;97754.03;;;25.23;49.43
6532;BME280;3299;42.004;24.868;2022-08-19T01:51:10;97741.84;;;25.09;49.31
6532;BME280;3299;42.004;24.868;2022-08-19T01:53:36;97779.91;;;25.21;49.14
6532;BME280;3299;42.004;24.868;2022-08-19T01:56:03;97782.38;;;25.16;49.69
6532;BME280;3299;42.004;24.868;2022-08-19T01:58:33;97770.16;;;25.15;49.63
6532;BME280;3299;42.004;24.868;2022-08-19T02:01:01;97778.13;;;25.15;49.75
6532;BME280;3299;42.004;24.868;2022-08-19T02:03:26;97768.19;;;25.04;50.12
6532;BME280;3299;42.004;24.868;2022-08-19T02:05:57;97785.63;;;25.18;50.00
6532;BME280;3299;42.004;24.868;2022-08-19T02:08:25;97791.50;;;25.20;49.93
6532;BME280;3299;42.004;24.868;2022-08-19T02:10:50;97794.16;;;25.20;49.76
6532;BME280;3299;42.004;24.868;2022-08-19T02:13:16;97795.84;;;25.08;49.97
6532;BME280;3299;42.004;24.868;2022-08-19T02:15:41;97793.84;;;25.04;50.05
6532;BME280;3299;42.004;24.868;2022-08-19T02:18:07;97794.66;;;25.04;49.98
6532;BME280;3299;42.004;24.868;2022-08-19T02:20:33;97783.69;;;24.94;50.21
6532;BME280;3299;42.004;24.868;2022-08-19T02:22:59;97808.91;;;25.03;50.41
6532;BME280;3299;42.004;24.868;2022-08-19T02:25:26;97810.41;;;24.86;50.58
6532;BME280;3299;42.004;24.868;2022-08-19T02:27:52;97803.69;;;24.84;50.87
6532;BME280;3299;42.004;24.868;2022-08-19T02:30:19;97819.97;;;24.87;50.75
6532;BME280;3299;42.004;24.868;2022-08-19T02:32:45;97821.00;;;24.86;50.82
6532;BME280;3299;42.004;24.868;2022-08-19T02:35:12;97815.91;;;24.78;50.95
6532;BME280;3299;42.004;24.868;2022-08-19T02:37:38;97819.63;;;24.64;51.54
6532;BME280;3299;42.004;24.868;2022-08-19T02:40:22;97811.69;;;24.58;51.68
6532;BME280;3299;42.004;24.868;2022-08-19T02:42:47;97826.94;;;24.62;51.46
6532;BME280;3299;42.004;24.868;2022-08-19T02:45:13;97834.28;;;24.60;51.61
6532;BME280;3299;42.004;24.868;2022-08-19T02:47:39;97832.44;;;24.54;51.85
6532;BME280;3299;42.004;24.868;2022-08-19T02:50:05;97826.94;;;24.49;51.88
6532;BME280;3299;42.004;24.868;2022-08-19T02:52:32;97823.72;;;24.47;51.67
6532;BME280;3299;42.004;24.868;2022-08-19T02:54:58;97841.41;;;24.53;52.09
6532;BME280;3299;42.004;24.868;2022-08-19T02:57:23;97831.44;;;24.62;51.49
6532;BME280;3299;42.004;24.868;2022-08-19T02:59:49;97839.59;;;24.60;51.60
6532;BME280;3299;42.004;24.868;2022-08-19T03:02:15;97837.53;;;24.56;51.70
6532;BME280;3299;42.004;24.868;2022-08-19T03:04:41;97843.63;;;24.56;51.60
6532;BME280;3299;42.004;24.868;2022-08-19T03:07:07;97846.91;;;24.58;51.69
6532;BME280;3299;42.004;24.868;2022-08-19T03:09:33;97858.31;;;24.52;51.94
6532;BME280;3299;42.004;24.868;2022-08-19T03:12:02;97851.16;;;24.53;51.93
6532;BME280;3299;42.004;24.868;2022-08-19T03:14:30;97832.47;;;24.35;52.44
6532;BME280;3299;42.004;24.868;2022-08-19T03:16:56;97853.00;;;24.39;52.65
6532;BME280;3299;42.004;24.868;2022-08-19T03:19:21;97846.72;;;24.40;52.38
6532;BME280;3299;42.004;24.868;2022-08-19T03:21:47;97850.78;;;24.36;52.68
6532;BME280;3299;42.004;24.868;2022-08-19T03:24:13;97850.19;;;24.34;52.58
6532;BME280;3299;42.004;24.868;2022-08-19T03:26:42;97858.31;;;24.33;52.49
6532;BME280;3299;42.004;24.868;2022-08-19T03:29:08;97858.94;;;24.28;52.64
6532;BME280;3299;42.004;24.868;2022-08-19T03:31:35;97850.78;;;24.23;52.71
6532;BME280;3299;42.004;24.868;2022-08-19T03:34:01;97836.34;;;24.07;52.65
6532;BME280;3299;42.004;24.868;2022-08-19T03:36:27;97862.19;;;24.30;52.62
6532;BME280;3299;42.004;24.868;2022-08-19T03:38:55;97871.72;;;24.31;52.44
6532;BME280;3299;42.004;24.868;2022-08-19T03:41:24;97880.25;;;24.33;52.77
6532;BME280;3299;42.004;24.868;2022-08-19T03:43:51;97872.34;;;24.27;52.95
6532;BME280;3299;42.004;24.868;2022-08-19T03:46:20;97872.97;;;24.23;52.85
6532;BME280;3299;42.004;24.868;2022-08-19T03:48:47;97859.34;;;24.13;53.01
6532;BME280;3299;42.004;24.868;2022-08-19T03:51:32;97873.56;;;24.18;52.97
6532;BME280;3299;42.004;24.868;2022-08-19T03:54:00;97877.84;;;24.13;53.05
6532;BME280;3299;42.004;24.868;2022-08-19T03:56:26;97870.09;;;24.11;53.47
6532;BME280;3299;42.004;24.868;2022-08-19T03:58:53;97839.81;;;23.88;53.35
6532;BME280;3299;42.004;24.868;2022-08-19T04:01:21;97870.09;;;24.04;53.70
6532;BME280;3299;42.004;24.868;2022-08-19T04:03:48;97866.41;;;23.92;54.08
6532;BME280;3299;42.004;24.868;2022-08-19T04:06:18;97871.28;;;23.89;54.29
6532;BME280;3299;42.004;24.868;2022-08-19T04:08:45;97862.72;;;23.80;54.41
6532;BME280;3299;42.004;24.868;2022-08-19T04:11:14;97870.72;;;23.94;54.13
6532;BME280;3299;42.004;24.868;2022-08-19T04:13:40;97879.63;;;23.86;54.63
6532;BME280;3299;42.004;24.868;2022-08-19T04:16:08;97879.44;;;23.88;54.73
6532;BME280;3299;42.004;24.868;2022-08-19T04:18:37;97879.44;;;23.88;54.93
6532;BME280;3299;42.004;24.868;2022-08-19T04:21:02;97873.69;;;23.77;55.12
6532;BME280;3299;42.004;24.868;2022-08-19T04:23:28;97868.88;;;23.88;54.77
6532;BME280;3299;42.004;24.868;2022-08-19T04:25:54;97867.25;;;24.00;54.74
6532;BME280;3299;42.004;24.868;2022-08-19T04:28:20;97866.41;;;23.86;54.99
6532;BME280;3299;42.004;24.868;2022-08-19T04:30:49;97860.75;;;23.96;54.85
6532;BME280;3299;42.004;24.868;2022-08-19T04:33:17;97861.91;;;23.86;55.25
6532;BME280;3299;42.004;24.868;2022-08-19T04:35:45;97860.31;;;23.79;55.31
6532;BME280;3299;42.004;24.868;2022-08-19T04:38:12;97861.91;;;23.80;55.04
6532;BME280;3299;42.004;24.868;2022-08-19T04:40:42;97866.78;;;23.83;55.29
6532;BME280;3299;42.004;24.868;2022-08-19T04:43:27;97868.03;;;23.87;54.72
6532;BME280;3299;42.004;24.868;2022-08-19T04:45:52;97874.97;;;23.88;55.11
6532;BME280;3299;42.004;24.868;2022-08-19T04:48:18;97862.53;;;23.82;55.18
6532;BME280;3299;42.004;24.868;2022-08-19T04:50:56;97870.09;;;24.04;54.91
6532;BME280;3299;42.004;24.868;2022-08-19T04:53:30;97875.53;;;23.83;55.45
6532;BME280;3299;42.004;24.868;2022-08-19T04:55:57;97876.56;;;23.83;55.76
6532;BME280;3299;42.004;24.868;2022-08-19T04:58:25;97874.91;;;23.81;55.60
6532;BME280;3299;42.004;24.868;2022-08-19T05:00:51;97879.22;;;23.89;55.65
6532;BME280;3299;42.004;24.868;2022-08-19T05:03:17;97882.09;;;24.01;55.34
6532;BME280;3299;42.004;24.868;2022-08-19T05:05:44;97881.09;;;24.08;55.40
6532;BME280;3299;42.004;24.868;2022-08-19T05:08:11;97883.94;;;24.19;55.31
6532;BME280;3299;42.004;24.868;2022-08-19T05:10:38;97874.38;;;24.18;55.26
6532;BME280;3299;42.004;24.868;2022-08-19T05:13:05;97882.72;;;24.35;54.73
6532;BME280;3299;42.004;24.868;2022-08-19T05:15:30;97877.44;;;24.35;54.51
6532;BME280;3299;42.004;24.868;2022-08-19T05:17:56;97874.59;;;24.36;54.66
6532;BME280;3299;42.004;24.868;2022-08-19T05:20:40;97885.38;;;24.41;54.41
6532;BME280;3299;42.004;24.868;2022-08-19T05:23:24;97891.25;;;24.43;54.65
6532;BME280;3299;42.004;24.868;2022-08-19T05:25:51;97888.00;;;24.48;54.51
6532;BME280;3299;42.004;24.868;2022-08-19T05:28:17;97864.41;;;24.46;53.87
6532;BME280;3299;42.004;24.868;2022-08-19T05:30:43;97895.13;;;24.73;53.64
6532;BME280;3299;42.004;24.868;2022-08-19T05:33:10;97896.34;;;24.84;53.85
6532;BME280;3299;42.004;24.868;2022-08-19T05:35:38;97896.50;;;24.89;53.46
6532;BME280;3299;42.004;24.868;2022-08-19T05:38:05;97898.16;;;24.90;53.50
6532;BME280;3299;42.004;24.868;2022-08-19T05:40:35;97884.53;;;24.86;53.83
6532;BME280;3299;42.004;24.868;2022-08-19T05:43:03;97886.75;;;24.89;53.70
6532;BME280;3299;42.004;24.868;2022-08-19T05:45:29;97892.63;;;24.98;53.69
6532;BME280;3299;42.004;24.868;2022-08-19T05:47:54;97881.84;;;24.99;53.22
6532;BME280;3299;42.004;24.868;2022-08-19T05:50:20;97889.34;;;25.15;53.14
6532;BME280;3299;42.004;24.868;2022-08-19T05:52:45;97875.84;;;25.17;52.83
6532;BME280;3299;42.004;24.868;2022-08-19T05:55:11;97891.72;;;25.36;52.68
6532;BME280;3299;42.004;24.868;2022-08-19T05:57:37;97861.41;;;25.26;52.47
6532;BME280;3299;42.004;24.868;2022-08-19T06:00:06;97889.38;;;25.53;51.86
6532;BME280;3299;42.004;24.868;2022-08-19T06:02:36;97893.03;;;25.58;51.86
6532;BME280;3299;42.004;24.868;2022-08-19T06:05:04;97895.88;;;25.63;51.94
6532;BME280;3299;42.004;24.868;2022-08-19T06:07:35;97899.47;;;25.75;51.54
6532;BME280;3299;42.004;24.868;2022-08-19T06:10:00;97886.44;;;25.67;51.93
6532;BME280;3299;42.004;24.868;2022-08-19T06:12:26;97897.19;;;25.85;51.28
6532;BME280;3299;42.004;24.868;2022-08-19T06:14:55;97896.50;;;25.96;51.20
6532;BME280;3299;42.004;24.868;2022-08-19T06:17:21;97908.66;;;26.10;51.16
6532;BME280;3299;42.004;24.868;2022-08-19T06:19:49;97911.81;;;26.25;50.69
6532;BME280;3299;42.004;24.868;2022-08-19T06:22:15;97909.69;;;26.34;50.16
6532;BME280;3299;42.004;24.868;2022-08-19T06:24:41;97913.69;;;26.49;50.03
6532;BME280;3299;42.004;24.868;2022-08-19T06:27:06;97918.53;;;26.52;50.12
6532;BME280;3299;42.004;24.868;2022-08-19T06:29:32;97920.84;;;26.73;49.35
6532;BME280;3299;42.004;24.868;2022-08-19T06:31:59;97924.19;;;26.87;49.21
6532;BME280;3299;42.004;24.868;2022-08-19T06:34:27;97926.91;;;26.98;49.20
6532;BME280;3299;42.004;24.868;2022-08-19T06:36:54;97921.81;;;27.15;49.06
6532;BME280;3299;42.004;24.868;2022-08-19T06:39:23;97925.63;;;27.25;48.79
6532;BME280;3299;42.004;24.868;2022-08-19T06:41:52;97929.53;;;27.41;47.93
6532;BME280;3299;42.004;24.868;2022-08-19T06:44:19;97930.84;;;27.50;47.95
6532;BME280;3299;42.004;24.868;2022-08-19T06:46:45;97918.75;;;27.54;48.10
6532;BME280;3299;42.004;24.868;2022-08-19T06:49:11;97931.22;;;27.71;47.91
6532;BME280;3299;42.004;24.868;2022-08-19T06:51:41;97927.34;;;27.85;47.60
6532;BME280;3299;42.004;24.868;2022-08-19T06:54:07;97933.53;;;27.97;47.33
6532;BME280;3299;42.004;24.868;2022-08-19T06:56:33;97936.91;;;28.04;47.57
6532;BME280;3299;42.004;24.868;2022-08-19T06:59:08;97937.88;;;28.21;46.81
6532;BME280;3299;42.004;24.868;2022-08-19T07:01:39;97932.34;;;28.34;47.28
6532;BME280;3299;42.004;24.868;2022-08-19T07:04:07;97930.94;;;28.50;46.94
6532;BME280;3299;42.004;24.868;2022-08-19T07:06:34;97934.75;;;28.65;46.43
6532;BME280;3299;42.004;24.868;2022-08-19T07:08:59;97929.78;;;28.80;46.57
6532;BME280;3299;42.004;24.868;2022-08-19T07:11:25;97933.84;;;28.94;45.04
6532;BME280;3299;42.004;24.868;2022-08-19T07:13:51;97940.91;;;29.12;44.41
6532;BME280;3299;42.004;24.868;2022-08-19T07:16:18;97923.28;;;29.22;44.13
6532;BME280;3299;42.004;24.868;2022-08-19T07:18:46;97926.16;;;29.32;44.20
6532;BME280;3299;42.004;24.868;2022-08-19T07:21:20;97928.47;;;29.40;44.23
6532;BME280;3299;42.004;24.868;2022-08-19T07:23:48;97933.44;;;29.48;43.95
6532;BME280;3299;42.004;24.868;2022-08-19T07:26:18;97935.75;;;29.56;43.61
6532;BME280;3299;42.004;24.868;2022-08-19T07:28:45;97929.56;;;29.67;42.71
6532;BME280;3299;42.004;24.868;2022-08-19T07:31:12;97938.50;;;29.73;42.81
6532;BME280;3299;42.004;24.868;2022-08-19T07:33:39;97934.41;;;29.82;42.72
6532;BME280;3299;42.004;24.868;2022-08-19T07:36:06;97939.38;;;29.90;42.92
6532;BME280;3299;42.004;24.868;2022-08-19T07:38:33;97933.41;;;29.99;42.05
6532;BME280;3299;42.004;24.868;2022-08-19T07:40:59;97941.50;;;30.04;42.28
6532;BME280;3299;42.004;24.868;2022-08-19T07:43:24;97930.47;;;30.12;42.86
6532;BME280;3299;42.004;24.868;2022-08-19T07:45:52;97939.28;;;30.13;42.61
6532;BME280;3299;42.004;24.868;2022-08-19T07:48:21;97916.16;;;30.18;42.58
6532;BME280;3299;42.004;24.868;2022-08-19T07:50:50;97929.59;;;30.23;42.58
6532;BME280;3299;42.004;24.868;2022-08-19T07:53:15;97938.03;;;30.32;41.79
6532;BME280;3299;42.004;24.868;2022-08-19T07:55:41;97933.56;;;30.37;41.93
6532;BME280;3299;42.004;24.868;2022-08-19T07:58:06;97928.81;;;30.39;42.23
6532;BME280;3299;42.004;24.868;2022-08-19T08:00:32;97926.69;;;30.41;42.53
6532;BME280;3299;42.004;24.868;2022-08-19T08:02:57;97934.88;;;30.51;42.32
6532;BME280;3299;42.004;24.868;2022-08-19T08:05:23;97933.00;;;30.52;41.78
6532;BME280;3299;42.004;24.868;2022-08-19T08:08:28;97940.63;;;30.60;42.32
6532;BME280;3299;42.004;24.868;2022-08-19T08:10:56;97940.47;;;30.66;41.96
6532;BME280;3299;42.004;24.868;2022-08-19T08:13:22;97910.94;;;30.56;41.98
6532;BME280;3299;42.004;24.868;2022-08-19T08:15:48;97936.91;;;30.77;41.80
6532;BME280;3299;42.004;24.868;2022-08-19T08:18:14;97934.31;;;30.82;41.69
6532;BME280;3299;42.004;24.868;2022-08-19T08:20:40;97933.81;;;30.85;41.25
6532;BME280;3299;42.004;24.868;2022-08-19T08:23:05;97928.97;;;30.82;41.27
6532;BME280;3299;42.004;24.868;2022-08-19T08:25:49;97924.28;;;30.73;41.69
6532;BME280;3299;42.004;24.868;2022-08-19T08:28:18;97932.22;;;30.84;41.88
6532;BME280;3299;42.004;24.868;2022-08-19T08:30:45;97929.69;;;30.94;41.65
6532;BME280;3299;42.004;24.868;2022-08-19T08:33:13;97921.19;;;30.97;40.75
6532;BME280;3299;42.004;24.868;2022-08-19T08:35:41;97923.13;;;31.02;40.47
6532;BME280;3299;42.004;24.868;2022-08-19T08:38:11;97920.22;;;31.03;41.15
6532;BME280;3299;42.004;24.868;2022-08-19T08:45:43;97922.19;;;31.29;40.84
6532;BME280;3299;42.004;24.868;2022-08-19T08:48:22;97924.19;;;31.39;41.21
6532;BME280;3299;42.004;24.868;2022-08-19T08:50:50;97918.13;;;31.48;40.60
6532;BME280;3299;42.004;24.868;2022-08-19T08:53:20;97914.47;;;31.54;40.82
6532;BME280;3299;42.004;24.868;2022-08-19T08:55:46;97907.31;;;31.60;40.54
6532;BME280;3299;42.004;24.868;2022-08-19T08:58:44;97913.38;;;31.72;40.23
6532;BME280;3299;42.004;24.868;2022-08-19T09:01:13;97899.22;;;31.76;41.15
6532;BME280;3299;42.004;24.868;2022-08-19T09:03:40;97909.03;;;31.92;40.29
6532;BME280;3299;42.004;24.868;2022-08-19T09:06:33;97901.06;;;31.97;40.53
6532;BME280;3299;42.004;24.868;2022-08-19T09:09:04;97900.59;;;32.05;40.11
6532;BME280;3299;42.004;24.868;2022-08-19T09:11:40;97896.91;;;32.11;39.85
6532;BME280;3299;42.004;24.868;2022-08-19T09:16:35;97887.75;;;32.07;39.29
6532;BME280;3299;42.004;24.868;2022-08-19T09:19:03;97888.91;;;32.16;39.42
6532;BME280;3299;42.004;24.868;2022-08-19T09:21:30;97865.78;;;32.05;39.67
6532;BME280;3299;42.004;24.868;2022-08-19T09:23:56;97885.31;;;32.27;39.33
6532;BME280;3299;42.004;24.868;2022-08-19T09:26:23;97882.16;;;32.35;38.47
6532;BME280;3299;42.004;24.868;2022-08-19T09:28:51;97883.34;;;32.49;38.59
6532;BME280;3299;42.004;24.868;2022-08-19T09:31:20;97874.44;;;32.44;37.66
6532;BME280;3299;42.004;24.868;2022-08-19T09:33:47;97882.22;;;32.45;38.05
6532;BME280;3299;42.004;24.868;2022-08-19T09:36:14;97887.09;;;32.53;37.11
6532;BME280;3299;42.004;24.868;2022-08-19T09:38:41;97893.66;;;32.67;36.73
6532;BME280;3299;42.004;24.868;2022-08-19T09:41:12;97874.91;;;32.67;36.64
6532;BME280;3299;42.004;24.868;2022-08-19T09:43:39;97885.72;;;32.82;36.27
6532;BME280;3299;42.004;24.868;2022-08-19T09:46:07;97884.69;;;32.88;35.84
6532;BME280;3299;42.004;24.868;2022-08-19T09:48:35;97879.66;;;32.97;35.46
6532;BME280;3299;42.004;24.868;2022-08-19T09:51:14;97881.31;;;33.08;35.35
6532;BME280;3299;42.004;24.868;2022-08-19T09:53:41;97881.38;;;33.18;35.32
6532;BME280;3299;42.004;24.868;2022-08-19T09:56:07;97879.84;;;33.27;34.20
6532;BME280;3299;42.004;24.868;2022-08-19T09:58:33;97866.19;;;33.33;34.76
6532;BME280;3299;42.004;24.868;2022-08-19T10:01:00;97872.38;;;33.39;34.25
6532;BME280;3299;42.004;24.868;2022-08-19T10:03:28;97874.28;;;33.48;34.01
6532;BME280;3299;42.004;24.868;2022-08-19T10:05:54;97863.00;;;33.51;33.66
6532;BME280;3299;42.004;24.868;2022-08-19T10:08:26;97867.09;;;33.64;32.84
6532;BME280;3299;42.004;24.868;2022-08-19T10:10:53;97870.06;;;33.72;33.22
6532;BME280;3299;42.004;24.868;2022-08-19T10:13:21;97863.13;;;33.86;32.28
6532;BME280;3299;42.004;24.868;2022-08-19T10:15:48;97865.81;;;33.91;32.67
6532;BME280;3299;42.004;24.868;2022-08-19T10:18:16;97861.56;;;34.00;32.35
6532;BME280;3299;42.004;24.868;2022-08-19T10:20:43;97850.78;;;34.05;32.55
6532;BME280;3299;42.004;24.868;2022-08-19T10:23:11;97859.94;;;34.24;32.25
6532;BME280;3299;42.004;24.868;2022-08-19T10:25:37;97848.13;;;34.20;31.42
6532;BME280;3299;42.004;24.868;2022-08-19T10:28:03;97848.69;;;34.37;32.01
6532;BME280;3299;42.004;24.868;2022-08-19T10:30:29;97852.97;;;34.38;30.87
6532;BME280;3299;42.004;24.868;2022-08-19T10:32:55;97846.00;;;34.52;30.39
6532;BME280;3299;42.004;24.868;2022-08-19T10:35:20;97843.84;;;34.59;30.68
6532;BME280;3299;42.004;24.868;2022-08-19T10:37:45;97830.38;;;34.59;30.16
6532;BME280;3299;42.004;24.868;2022-08-19T10:40:11;97838.41;;;34.69;30.22
6532;BME280;3299;42.004;24.868;2022-08-19T10:42:38;97843.03;;;34.79;30.17
6532;BME280;3299;42.004;24.868;2022-08-19T10:45:04;97838.97;;;34.81;29.83
6532;BME280;3299;42.004;24.868;2022-08-19T10:47:32;97849.66;;;35.01;30.28
6532;BME280;3299;42.004;24.868;2022-08-19T10:49:58;97851.47;;;35.21;29.08
6532;BME280;3299;42.004;24.868;2022-08-19T10:52:44;97845.75;;;35.42;28.96
6532;BME280;3299;42.004;24.868;2022-08-19T10:55:10;97843.78;;;35.58;28.56
6532;BME280;3299;42.004;24.868;2022-08-19T10:57:54;97847.47;;;35.77;28.80
6532;BME280;3299;42.004;24.868;2022-08-19T11:00:20;97837.66;;;35.96;28.92
6532;BME280;3299;42.004;24.868;2022-08-19T11:02:46;97845.91;;;36.09;28.48
6532;BME280;3299;42.004;24.868;2022-08-19T11:05:12;97836.97;;;36.14;27.56
6532;BME280;3299;42.004;24.868;2022-08-19T11:07:39;97849.28;;;36.30;27.09
6532;BME280;3299;42.004;24.868;2022-08-19T11:10:06;97843.50;;;36.41;26.65
6532;BME280;3299;42.004;24.868;2022-08-19T11:12:32;97845.47;;;36.59;26.66
6532;BME280;3299;42.004;24.868;2022-08-19T11:14:58;97843.25;;;36.38;26.01
6532;BME280;3299;42.004;24.868;2022-08-19T11:17:23;97835.28;;;36.56;26.89
6532;BME280;3299;42.004;24.868;2022-08-19T11:19:49;97835.38;;;36.75;26.80
6532;BME280;3299;42.004;24.868;2022-08-19T11:22:15;97839.41;;;37.01;25.27
6532;BME280;3299;42.004;24.868;2022-08-19T11:24:41;97835.31;;;37.08;25.15
6532;BME280;3299;42.004;24.868;2022-08-19T11:27:08;97833.72;;;37.26;25.97
6532;BME280;3299;42.004;24.868;2022-08-19T11:29:39;97812.84;;;37.13;25.81
6532;BME280;3299;42.004;24.868;2022-08-19T11:32:09;97831.63;;;37.41;25.79
6532;BME280;3299;42.004;24.868;2022-08-19T11:34:35;97834.16;;;37.56;25.59
6532;BME280;3299;42.004;24.868;2022-08-19T11:37:02;97815.28;;;37.51;25.31
6532;BME280;3299;42.004;24.868;2022-08-19T11:39:30;97830.72;;;37.69;24.96
6532;BME280;3299;42.004;24.868;2022-08-19T11:42:00;97820.00;;;37.64;24.45
6532;BME280;3299;42.004;24.868;2022-08-19T11:44:27;97826.44;;;37.68;24.68
6532;BME280;3299;42.004;24.868;2022-08-19T11:46:55;97822.06;;;37.72;25.02
6532;BME280;3299;42.004;24.868;2022-08-19T11:49:21;97813.28;;;37.80;24.67
6532;BME280;3299;42.004;24.868;2022-08-19T11:51:48;97811.22;;;37.91;24.25
6532;BME280;3299;42.004;24.868;2022-08-19T11:54:16;97816.22;;;38.02;25.04
6532;BME280;3299;42.004;24.868;2022-08-19T11:56:43;97819.25;;;38.14;24.13
6532;BME280;3299;42.004;24.868;2022-08-19T11:59:09;97803.13;;;38.09;23.90
6532;BME280;3299;42.004;24.868;2022-08-19T12:01:35;97814.63;;;38.15;24.61
6532;BME280;3299;42.004;24.868;2022-08-19T12:04:01;97808.03;;;38.21;23.71
6532;BME280;3299;42.004;24.868;2022-08-19T12:06:31;97807.66;;;38.27;23.00
6532;BME280;3299;42.004;24.868;2022-08-19T12:09:02;97810.66;;;38.44;23.51
6532;BME280;3299;42.004;24.868;2022-08-19T12:11:28;97808.34;;;38.51;23.42
6532;BME280;3299;42.004;24.868;2022-08-19T12:13:54;97809.75;;;38.62;22.38
6532;BME280;3299;42.004;24.868;2022-08-19T12:16:25;97800.75;;;38.67;22.73
6532;BME280;3299;42.004;24.868;2022-08-19T12:18:52;97809.38;;;38.82;23.09
6532;BME280;3299;42.004;24.868;2022-08-19T12:21:22;97799.19;;;38.93;22.95
6532;BME280;3299;42.004;24.868;2022-08-19T12:23:51;97786.63;;;38.83;23.05
6532;BME280;3299;42.004;24.868;2022-08-19T12:26:17;97769.53;;;38.88;22.39
6532;BME280;3299;42.004;24.868;2022-08-19T12:28:43;97800.59;;;39.04;22.35
6532;BME280;3299;42.004;24.868;2022-08-19T12:31:09;97795.13;;;39.17;22.34
6532;BME280;3299;42.004;24.868;2022-08-19T12:33:37;97788.97;;;39.30;22.40
6532;BME280;3299;42.004;24.868;2022-08-19T12:36:05;97794.03;;;39.45;22.83
6532;BME280;3299;42.004;24.868;2022-08-19T12:38:32;97797.63;;;39.54;22.80
6532;BME280;3299;42.004;24.868;2022-08-19T12:40:58;97790.09;;;39.51;22.32
6532;BME280;3299;42.004;24.868;2022-08-19T12:43:23;97786.50;;;39.56;22.34
6532;BME280;3299;42.004;24.868;2022-08-19T12:45:49;97770.09;;;39.61;22.11
6532;BME280;3299;42.004;24.868;2022-08-19T12:48:16;97796.72;;;39.94;22.26
6532;BME280;3299;42.004;24.868;2022-08-19T12:50:43;97792.75;;;40.00;22.13
6532;BME280;3299;42.004;24.868;2022-08-19T12:53:10;97790.19;;;40.17;21.55
6532;BME280;3299;42.004;24.868;2022-08-19T12:55:36;97790.06;;;40.22;22.11
6532;BME280;3299;42.004;24.868;2022-08-19T12:58:01;97792.91;;;40.17;21.49
6532;BME280;3299;42.004;24.868;2022-08-19T13:00:28;97799.16;;;40.26;22.90
6532;BME280;3299;42.004;24.868;2022-08-19T13:02:54;97782.03;;;39.73;21.73
6532;BME280;3299;42.004;24.868;2022-08-19T13:05:25;97774.50;;;39.92;23.09
6532;BME280;3299;42.004;24.868;2022-08-19T13:07:53;97777.63;;;39.99;22.51
6532;BME280;3299;42.004;24.868;2022-08-19T13:10:22;97780.00;;;40.23;21.00
6532;BME280;3299;42.004;24.868;2022-08-19T13:12:49;97777.53;;;40.35;21.96
6532;BME280;3299;42.004;24.868;2022-08-19T13:15:17;97786.69;;;40.47;21.25
6532;BME280;3299;42.004;24.868;2022-08-19T13:17:46;97782.16;;;40.34;21.16
6532;BME280;3299;42.004;24.868;2022-08-19T13:20:15;97770.06;;;40.40;21.41
6532;BME280;3299;42.004;24.868;2022-08-19T13:22:41;97777.81;;;40.55;22.31